createdAt,value
2023-05-08T00:00:43.378Z,97720.31
2023-05-08T00:03:11.305Z,97715.63
2023-05-08T00:05:39.126Z,97708.19
2023-05-08T00:08:06.898Z,97713.16
2023-05-08T00:10:36.189Z,97716.03
2023-05-08T00:13:03.970Z,97717.94
2023-05-08T00:15:31.758Z,97710.97
2023-05-08T00:17:59.651Z,97709.03
2023-05-08T00:20:27.415Z,97709.28
2023-05-08T00:22:55.124Z,97706.75
2023-05-08T00:25:22.868Z,97713.72
2023-05-08T00:27:52.354Z,97716.28
2023-05-08T00:30:20.370Z,97708.53
2023-05-08T00:32:48.166Z,97707.59
2023-05-08T00:35:16.018Z,97712.78
2023-05-08T00:37:43.832Z,97704.94
2023-05-08T00:40:12.916Z,97713.50
2023-05-08T00:42:40.824Z,97700.41
2023-05-08T00:45:11.147Z,97703.25
2023-05-08T00:47:39.013Z,97709.50
2023-05-08T00:50:07.586Z,97702.50
2023-05-08T00:52:35.356Z,97704.66
2023-05-08T00:55:03.906Z,97708.25
2023-05-08T00:57:35.691Z,97714.00
2023-05-08T01:00:05.537Z,97716.88
2023-05-08T01:02:35.258Z,97715.31
2023-05-08T01:05:04.794Z,97716.38
2023-05-08T01:07:32.860Z,97719.31
2023-05-08T01:10:00.616Z,97726.41
2023-05-08T01:12:36.301Z,97723.78
2023-05-08T01:15:10.869Z,97731.59
2023-05-08T01:17:56.902Z,97725.06
2023-05-08T01:20:33.436Z,97724.75
2023-05-08T01:23:18.103Z,97734.59
2023-05-08T01:26:33.578Z,97732.69
2023-05-08T01:29:37.979Z,97732.59
2023-05-08T01:32:13.842Z,97738.59
2023-05-08T01:34:46.293Z,97731.41
2023-05-08T01:37:17.111Z,97739.84
2023-05-08T01:39:46.988Z,97738.91
2023-05-08T01:42:19.785Z,97741.34
2023-05-08T01:45:00.543Z,97734.16
2023-05-08T01:47:32.286Z,97741.75
2023-05-08T01:50:05.630Z,97742.59
2023-05-08T01:52:36.018Z,97740.69
2023-05-08T01:55:06.468Z,97740.56
2023-05-08T01:57:35.898Z,97744.06
2023-05-08T02:00:05.900Z,97743.13
2023-05-08T02:02:36.199Z,97752.50
2023-05-08T02:05:05.945Z,97740.47
2023-05-08T02:07:35.288Z,97753.47
2023-05-08T02:10:03.915Z,97749.59
2023-05-08T02:12:32.525Z,97757.84
2023-05-08T02:15:01.739Z,97754.66
2023-05-08T02:17:30.884Z,97750.66
2023-05-08T02:20:02.000Z,97758.59
2023-05-08T02:22:29.967Z,97757.41
2023-05-08T02:24:58.873Z,97766.28
2023-05-08T02:27:28.031Z,97767.13
2023-05-08T02:29:56.198Z,97762.69
2023-05-08T02:32:26.686Z,97763.78
2023-05-08T02:35:02.541Z,97762.09
2023-05-08T02:37:33.348Z,97775.41
2023-05-08T02:40:02.997Z,97772.03
2023-05-08T02:42:31.673Z,97766.84
2023-05-08T02:44:59.451Z,97771.41
2023-05-08T02:47:29.199Z,97767.94
2023-05-08T02:50:02.274Z,97774.38
2023-05-08T02:52:33.678Z,97775.44
2023-05-08T02:55:04.642Z,97779.25
2023-05-08T02:57:37.332Z,97782.44
2023-05-08T03:00:07.302Z,97772.59
2023-05-08T03:02:39.500Z,97782.44
2023-05-08T03:05:14.942Z,97781.81
2023-05-08T03:07:45.118Z,97778.31
2023-05-08T03:10:15.629Z,97789.84
2023-05-08T03:12:47.301Z,97779.28
2023-05-08T03:15:20.549Z,97782.16
2023-05-08T03:17:50.068Z,97776.31
2023-05-08T03:20:19.306Z,97777.50
2023-05-08T03:22:49.364Z,97775.06
2023-05-08T03:25:18.506Z,97773.59
2023-05-08T03:27:47.089Z,97775.28
2023-05-08T03:30:16.017Z,97772.84
2023-05-08T03:32:46.085Z,97771.47
2023-05-08T03:35:15.207Z,97775.06
2023-05-08T03:37:43.386Z,97779.72
2023-05-08T03:40:13.378Z,97772.84
2023-05-08T03:42:42.232Z,97772.00
2023-05-08T03:45:11.450Z,97773.91
2023-05-08T03:47:40.547Z,97764.31
2023-05-08T03:50:10.297Z,97763.66
2023-05-08T03:52:39.467Z,97766.41
2023-05-08T03:55:08.496Z,97768.19
2023-05-08T03:57:42.070Z,97760.16
2023-05-08T04:00:14.831Z,97761.13
2023-05-08T04:02:48.444Z,97768.31
2023-05-08T04:05:22.868Z,97763.03
2023-05-08T04:07:54.694Z,97761.53
2023-05-08T04:10:26.284Z,97758.19
2023-05-08T04:12:59.942Z,97766.81
2023-05-08T04:15:30.832Z,97764.28
2023-05-08T04:18:01.253Z,97766.28
2023-05-08T04:20:30.719Z,97765.53
2023-05-08T04:22:59.891Z,97776.09
2023-05-08T04:25:27.772Z,97775.41
2023-05-08T04:27:57.727Z,97783.19
2023-05-08T04:30:25.883Z,97780.69
2023-05-08T04:32:53.853Z,97776.44
2023-05-08T04:35:21.954Z,97781.81
2023-05-08T04:37:49.826Z,97783.50
2023-05-08T04:40:17.693Z,97790.91
2023-05-08T04:42:47.497Z,97785.63
2023-05-08T04:45:17.804Z,97792.78
2023-05-08T04:47:45.659Z,97790.16
2023-05-08T04:50:13.535Z,97797.31
2023-05-08T04:52:41.514Z,97804.63
2023-05-08T04:55:10.589Z,97802.94
2023-05-08T04:57:38.528Z,97814.13
2023-05-08T05:00:07.650Z,97813.38
2023-05-08T05:02:36.858Z,97816.03
2023-05-08T05:05:04.891Z,97821.22
2023-05-08T05:07:32.691Z,97816.75
2023-05-08T05:10:01.245Z,97796.47
2023-05-08T05:12:29.034Z,97819.63
2023-05-08T05:14:56.860Z,97825.44
2023-05-08T05:17:24.785Z,97827.22
2023-05-08T05:19:54.176Z,97821.94
2023-05-08T05:22:21.973Z,97833.34
2023-05-08T05:24:49.776Z,97833.34
2023-05-08T05:27:19.904Z,97831.03
2023-05-08T05:29:49.031Z,97828.03
2023-05-08T05:32:16.823Z,97837.34
2023-05-08T05:34:44.610Z,97833.97
2023-05-08T05:37:13.752Z,97839.25
2023-05-08T05:39:41.580Z,97839.25
2023-05-08T05:42:09.363Z,97832.81
2023-05-08T05:44:37.938Z,97838.63
2023-05-08T05:47:06.359Z,97846.47
2023-05-08T05:49:34.483Z,97858.72
2023-05-08T05:52:02.473Z,97851.75
2023-05-08T05:54:31.623Z,97850.91
2023-05-08T05:56:59.433Z,97858.72
2023-05-08T05:59:27.254Z,97855.31
2023-05-08T06:01:55.051Z,97854.69
2023-05-08T06:04:22.969Z,97863.16
2023-05-08T06:06:50.787Z,97857.78
2023-05-08T06:09:18.574Z,97862.13
2023-05-08T06:11:47.715Z,97856.72
2023-05-08T06:14:15.542Z,97862.75
2023-05-08T06:16:45.073Z,97856.94
2023-05-08T06:19:12.885Z,97853.53
2023-05-08T06:21:41.021Z,97861.47
2023-05-08T06:24:09.254Z,97858.81
2023-05-08T06:26:37.095Z,97854.28
2023-05-08T06:29:07.557Z,97861.88
2023-05-08T06:31:35.432Z,97866.31
2023-05-08T06:34:03.288Z,97860.63
2023-05-08T06:36:31.867Z,97862.56
2023-05-08T06:38:59.641Z,97863.28
2023-05-08T06:41:27.414Z,97862.56
2023-05-08T06:43:55.194Z,97871.06
2023-05-08T06:46:24.432Z,97867.94
2023-05-08T06:48:52.240Z,97870.16
2023-05-08T06:51:23.221Z,97871.75
2023-05-08T06:53:51.180Z,97870.91
2023-05-08T06:56:18.973Z,97869.50
2023-05-08T06:58:53.772Z,97865.91
2023-05-08T07:01:34.125Z,97862.84
2023-05-08T07:04:01.946Z,97864.78
2023-05-08T07:06:31.085Z,97865.31
2023-05-08T07:08:59.008Z,97864.91
2023-05-08T07:11:26.875Z,97868.63
2023-05-08T07:13:54.902Z,97865.34
2023-05-08T07:16:22.727Z,97871.47
2023-05-08T07:18:51.885Z,97854.78
2023-05-08T07:21:21.289Z,97868.09
2023-05-08T07:23:51.726Z,97833.00
2023-05-08T07:26:19.756Z,97858.28
2023-05-08T07:28:47.533Z,97853.69
2023-05-08T07:31:15.428Z,97856.34
2023-05-08T07:33:43.492Z,97859.63
2023-05-08T07:36:12.687Z,97860.47
2023-05-08T07:38:40.487Z,97869.59
2023-05-08T07:41:08.674Z,97878.03
2023-05-08T07:43:37.055Z,97870.00
2023-05-08T07:46:04.925Z,97866.63
2023-05-08T07:48:32.722Z,97877.41
2023-05-08T07:51:00.514Z,97874.75
2023-05-08T07:53:29.671Z,97882.59
2023-05-08T07:55:57.461Z,97881.41
2023-05-08T07:58:25.274Z,97878.41
2023-05-08T08:00:53.762Z,97884.66
2023-05-08T08:03:21.625Z,97877.16
2023-05-08T08:05:49.492Z,97880.22
2023-05-08T08:08:17.311Z,97884.00
2023-05-08T08:10:46.465Z,97877.97
2023-05-08T08:13:14.246Z,97879.56
2023-05-08T08:15:42.081Z,97883.47
2023-05-08T08:18:10.024Z,97884.06
2023-05-08T08:20:37.874Z,97891.75
2023-05-08T08:23:06.071Z,97880.13
2023-05-08T08:25:34.089Z,97885.50
2023-05-08T08:28:03.229Z,97890.56
2023-05-08T08:30:31.017Z,97890.88
2023-05-08T08:33:02.211Z,97894.97
2023-05-08T08:35:30.394Z,97895.34
2023-05-08T08:37:58.278Z,97900.88
2023-05-08T08:40:26.343Z,97904.03
2023-05-08T08:42:54.128Z,97907.22
2023-05-08T08:45:23.371Z,97912.28
2023-05-08T08:47:53.749Z,97901.53
2023-05-08T08:50:22.158Z,97911.19
2023-05-08T08:52:57.284Z,97913.28
2023-05-08T08:55:26.777Z,97896.25
2023-05-08T08:58:01.192Z,97914.66
2023-05-08T09:00:32.198Z,97898.25
2023-05-08T09:03:00.155Z,97914.97
2023-05-08T09:05:27.990Z,97912.75
2023-05-08T09:07:56.611Z,97909.88
2023-05-08T09:10:25.740Z,97916.34
2023-05-08T09:12:53.897Z,97915.09
2023-05-08T09:15:22.141Z,97917.09
2023-05-08T09:17:51.358Z,97906.81
2023-05-08T09:20:19.518Z,97899.53
2023-05-08T09:22:48.386Z,97913.69
2023-05-08T09:25:16.402Z,97918.88
2023-05-08T09:27:44.268Z,97915.91
2023-05-08T09:30:14.427Z,97921.31
2023-05-08T09:32:43.325Z,97914.22
2023-05-08T09:35:13.710Z,97909.88
2023-05-08T09:37:43.089Z,97908.94
2023-05-08T09:40:16.300Z,97915.06
2023-05-08T09:42:44.112Z,97913.06
2023-05-08T09:45:12.904Z,97914.06
2023-05-08T09:47:49.402Z,97916.88
2023-05-08T09:50:18.928Z,97919.75
2023-05-08T09:52:48.625Z,97924.16
2023-05-08T09:55:16.484Z,97924.91
2023-05-08T09:57:54.188Z,97928.56
2023-05-08T10:00:22.864Z,97926.44
2023-05-08T10:03:01.322Z,97919.47
2023-05-08T10:05:32.253Z,97925.72
2023-05-08T10:08:01.253Z,97924.94
2023-05-08T10:10:30.985Z,97937.63
2023-05-08T10:12:59.500Z,97923.00
2023-05-08T10:15:31.193Z,97922.94
2023-05-08T10:18:04.390Z,97917.81
2023-05-08T10:20:34.857Z,97923.06
2023-05-08T10:23:03.422Z,97919.16
2023-05-08T10:25:33.998Z,97917.25
2023-05-08T10:28:08.465Z,97916.13
2023-05-08T10:30:39.870Z,97925.44
2023-05-08T10:33:11.218Z,97924.19
2023-05-08T10:35:40.412Z,97927.88
2023-05-08T10:38:09.920Z,97920.44
2023-05-08T10:40:38.873Z,97925.66
2023-05-08T10:43:08.108Z,97916.13
2023-05-08T10:45:36.156Z,97909.88
2023-05-08T10:48:06.512Z,97909.66
2023-05-08T10:50:46.331Z,97912.97
2023-05-08T10:53:18.277Z,97909.63
2023-05-08T10:55:47.486Z,97915.91
2023-05-08T10:58:16.426Z,97919.97
2023-05-08T11:01:12.899Z,97919.38
2023-05-08T11:03:42.845Z,97917.94
2023-05-08T11:06:12.227Z,97915.97
2023-05-08T11:08:51.059Z,97915.47
2023-05-08T11:11:26.841Z,97912.06
2023-05-08T11:13:59.225Z,97913.34
2023-05-08T11:17:04.598Z,97915.50
2023-05-08T11:19:32.560Z,97915.50
2023-05-08T11:22:23.447Z,97917.66
2023-05-08T11:24:54.705Z,97912.25
2023-05-08T11:28:04.302Z,97910.75
2023-05-08T11:30:37.326Z,97906.69
2023-05-08T11:33:18.075Z,97910.19
2023-05-08T11:35:51.515Z,97904.91
2023-05-08T11:38:25.419Z,97905.16
2023-05-08T11:40:59.011Z,97906.66
2023-05-08T11:43:28.443Z,97902.59
2023-05-08T11:46:01.447Z,97895.94
2023-05-08T11:48:29.196Z,97910.25
2023-05-08T11:50:57.162Z,97902.59
2023-05-08T11:53:26.460Z,97904.44
2023-05-08T11:55:54.804Z,97908.22
2023-05-08T11:58:23.078Z,97912.16
2023-05-08T12:00:51.247Z,97915.06
2023-05-08T12:03:21.082Z,97913.75
2023-05-08T12:05:49.923Z,97913.06
2023-05-08T12:08:18.710Z,97903.78
2023-05-08T12:10:52.649Z,97903.78
2023-05-08T12:13:21.790Z,97894.69
2023-05-08T12:15:51.386Z,97905.03
2023-05-08T12:18:19.170Z,97908.22
2023-05-08T12:20:47.319Z,97910.97
2023-05-08T12:23:15.136Z,97883.81
2023-05-08T12:25:43.048Z,97905.78
2023-05-08T12:28:12.344Z,97904.19
2023-05-08T12:30:40.188Z,97907.00
2023-05-08T12:33:08.522Z,97912.28
2023-05-08T12:35:36.341Z,97913.00
2023-05-08T12:38:04.645Z,97906.63
2023-05-08T12:40:33.656Z,97906.81
2023-05-08T12:43:02.817Z,97906.22
2023-05-08T12:45:34.911Z,97908.13
2023-05-08T12:48:03.925Z,97910.19
2023-05-08T12:50:35.710Z,97915.03
2023-05-08T12:53:05.385Z,97905.50
2023-05-08T12:55:34.349Z,97906.63
2023-05-08T12:58:03.845Z,97908.06
2023-05-08T13:00:40.109Z,97907.94
2023-05-08T13:03:08.720Z,97888.00
2023-05-08T13:05:37.288Z,97902.84
2023-05-08T13:08:07.412Z,97900.44
2023-05-08T13:10:46.345Z,97899.25
2023-05-08T13:13:14.580Z,97906.59
2023-05-08T13:15:44.226Z,97886.94
2023-05-08T13:18:12.480Z,97907.31
2023-05-08T13:20:40.589Z,97891.38
2023-05-08T13:23:08.996Z,97890.91
2023-05-08T13:25:37.507Z,97890.69
2023-05-08T13:28:05.878Z,97897.22
2023-05-08T13:30:33.785Z,97896.44
2023-05-08T13:33:03.203Z,97887.13
2023-05-08T13:35:31.449Z,97885.56
2023-05-08T13:37:59.653Z,97887.03
2023-05-08T13:40:27.873Z,97888.63
2023-05-08T13:42:55.742Z,97880.75
2023-05-08T13:45:23.748Z,97881.63
2023-05-08T13:47:51.802Z,97883.47
2023-05-08T13:50:22.327Z,97878.13
2023-05-08T13:52:52.299Z,97877.50
2023-05-08T13:55:23.230Z,97871.84
2023-05-08T13:57:51.555Z,97866.88
2023-05-08T14:00:20.280Z,97874.41
2023-05-08T14:02:50.702Z,97874.28
2023-05-08T14:05:19.510Z,97872.22
2023-05-08T14:07:48.686Z,97881.31
2023-05-08T14:10:17.432Z,97874.91
2023-05-08T14:12:46.717Z,97880.19
2023-05-08T14:15:14.860Z,97874.00
2023-05-08T14:17:43.419Z,97877.97
2023-05-08T14:20:12.331Z,97867.53
2023-05-08T14:22:40.264Z,97873.00
2023-05-08T14:25:10.771Z,97881.25
2023-05-08T14:27:38.804Z,97867.22
2023-05-08T14:30:08.202Z,97869.78
2023-05-08T14:32:36.079Z,97865.88
2023-05-08T14:35:03.973Z,97866.16
2023-05-08T14:37:31.803Z,97870.28
2023-05-08T14:39:59.612Z,97869.25
2023-05-08T14:42:28.771Z,97874.16
2023-05-08T14:44:57.017Z,97858.06
2023-05-08T14:47:24.829Z,97855.22
2023-05-08T14:49:53.734Z,97859.03
2023-05-08T14:52:21.578Z,97851.19
2023-05-08T14:54:53.453Z,97854.78
2023-05-08T14:57:21.676Z,97855.69
2023-05-08T15:02:21.523Z,97851.63
2023-05-08T15:04:49.369Z,97844.13
2023-05-08T15:07:17.185Z,97847.75
2023-05-08T15:09:44.986Z,97844.72
2023-05-08T15:12:12.851Z,97849.97
2023-05-08T15:14:40.725Z,97850.09
2023-05-08T15:17:10.000Z,97849.59
2023-05-08T15:19:37.929Z,97852.06
2023-05-08T15:22:05.852Z,97860.00
2023-05-08T15:24:33.634Z,97854.69
2023-05-08T15:27:01.553Z,97841.66
2023-05-08T15:29:29.374Z,97848.75
2023-05-08T15:31:57.349Z,97853.66
2023-05-08T15:34:29.213Z,97859.66
2023-05-08T15:37:00.718Z,97851.69
2023-05-08T15:39:28.494Z,97848.25
2023-05-08T15:41:56.340Z,97859.81
2023-05-08T15:44:26.508Z,97846.31
2023-05-08T15:46:56.694Z,97856.41
2023-05-08T15:49:27.150Z,97858.97
2023-05-08T15:51:55.141Z,97852.44
2023-05-08T15:54:23.321Z,97849.41
2023-05-08T15:56:51.207Z,97853.06
2023-05-08T15:59:18.999Z,97864.06
2023-05-08T16:01:47.097Z,97853.28
2023-05-08T16:04:14.964Z,97852.31
2023-05-08T16:06:44.177Z,97865.41
2023-05-08T16:09:12.092Z,97856.06
2023-05-08T16:11:39.994Z,97849.28
2023-05-08T16:14:07.767Z,97848.19
2023-05-08T16:16:35.638Z,97851.63
2023-05-08T16:19:03.504Z,97849.66
2023-05-08T16:21:31.453Z,97843.66
2023-05-08T16:24:00.683Z,97847.03
2023-05-08T16:26:28.482Z,97856.28
2023-05-08T16:28:56.418Z,97851.22
2023-05-08T16:31:24.200Z,97840.84
2023-05-08T16:33:51.981Z,97835.47
2023-05-08T16:36:19.785Z,97838.50
2023-05-08T16:38:47.632Z,97836.38
2023-05-08T16:41:17.482Z,97839.34
2023-05-08T16:43:45.333Z,97835.13
2023-05-08T16:46:13.197Z,97815.69
2023-05-08T16:48:42.319Z,97833.66
2023-05-08T16:51:10.098Z,97834.03
2023-05-08T16:53:37.885Z,97832.38
2023-05-08T16:56:05.829Z,97827.31
2023-05-08T16:58:35.045Z,97824.78
2023-05-08T17:01:02.885Z,97825.81
2023-05-08T17:03:30.827Z,97834.47
2023-05-08T17:05:58.638Z,97830.84
2023-05-08T17:08:26.646Z,97820.91
2023-05-08T17:10:54.813Z,97832.22
2023-05-08T17:13:22.750Z,97830.16
2023-05-08T17:15:51.938Z,97821.88
2023-05-08T17:18:20.385Z,97821.69
2023-05-08T17:20:48.179Z,97836.81
2023-05-08T17:23:16.006Z,97835.47
2023-05-08T17:25:43.835Z,97843.28
2023-05-08T17:28:11.650Z,97834.38
2023-05-08T17:30:39.785Z,97834.06
2023-05-08T17:33:08.995Z,97831.81
2023-05-08T17:35:36.826Z,97836.84
2023-05-08T17:38:04.596Z,97834.50
2023-05-08T17:40:32.532Z,97830.03
2023-05-08T17:43:00.365Z,97829.56
2023-05-08T17:45:28.232Z,97835.41
2023-05-08T17:47:56.207Z,97843.03
2023-05-08T17:50:25.741Z,97839.59
2023-05-08T17:52:53.504Z,97844.31
2023-05-08T17:55:21.327Z,97837.06
2023-05-08T17:57:49.108Z,97837.78
2023-05-08T18:00:17.734Z,97835.69
2023-05-08T18:02:49.127Z,97836.31
2023-05-08T18:05:17.133Z,97842.72
2023-05-08T18:07:46.312Z,97843.56
2023-05-08T18:10:14.331Z,97835.13
2023-05-08T18:12:42.344Z,97834.41
2023-05-08T18:15:12.726Z,97840.09
2023-05-08T18:17:40.987Z,97842.97
2023-05-08T18:20:11.328Z,97842.63
2023-05-08T18:22:39.284Z,97834.09
2023-05-08T18:25:09.933Z,97846.53
2023-05-08T18:27:37.753Z,97850.38
2023-05-08T18:30:06.655Z,97849.53
2023-05-08T18:32:35.338Z,97859.78
2023-05-08T18:35:03.167Z,97850.84
2023-05-08T18:37:30.977Z,97852.56
2023-05-08T18:39:58.763Z,97855.19
2023-05-08T18:42:28.301Z,97848.06
2023-05-08T18:44:56.408Z,97855.44
2023-05-08T18:47:24.247Z,97845.56
2023-05-08T18:49:52.439Z,97854.25
2023-05-08T18:52:20.323Z,97853.41
2023-05-08T18:54:48.155Z,97853.41
2023-05-08T18:57:15.985Z,97852.78
2023-05-08T18:59:52.712Z,97842.44
2023-05-08T19:02:20.774Z,97845.78
2023-05-08T19:04:48.565Z,97846.88
2023-05-08T19:07:16.817Z,97838.91
2023-05-08T19:09:44.584Z,97848.81
2023-05-08T19:12:12.489Z,97841.06
2023-05-08T19:14:40.541Z,97845.06
2023-05-08T19:17:09.674Z,97844.31
2023-05-08T19:19:37.528Z,97846.22
2023-05-08T19:22:05.375Z,97837.06
2023-05-08T19:24:34.250Z,97832.59
2023-05-08T19:27:02.080Z,97825.50
2023-05-08T19:29:29.996Z,97836.84
2023-05-08T19:31:57.940Z,97842.97
2023-05-08T19:34:27.526Z,97829.16
2023-05-08T19:36:55.375Z,97842.63
2023-05-08T19:39:23.168Z,97842.88
2023-05-08T19:41:51.371Z,97832.88
2023-05-08T19:44:19.241Z,97826.63
2023-05-08T19:46:47.106Z,97831.31
2023-05-08T19:49:17.335Z,97824.44
2023-05-08T19:51:48.420Z,97832.50
2023-05-08T19:54:16.489Z,97820.19
2023-05-08T19:56:44.365Z,97825.38
2023-05-08T19:59:12.194Z,97811.13
2023-05-08T20:01:40.173Z,97823.19
2023-05-08T20:04:08.130Z,97820.75
2023-05-08T20:06:35.993Z,97826.91
2023-05-08T20:09:05.331Z,97838.56
2023-05-08T20:11:33.120Z,97839.66
2023-05-08T20:14:00.948Z,97843.56
2023-05-08T20:16:29.096Z,97836.44
2023-05-08T20:18:57.281Z,97851.97
2023-05-08T20:21:25.648Z,97855.63
2023-05-08T20:23:53.516Z,97848.63
2023-05-08T20:26:23.327Z,97845.84
2023-05-08T20:28:51.973Z,97839.31
2023-05-08T20:31:20.189Z,97835.84
2023-05-08T20:33:48.184Z,97838.25
2023-05-08T20:36:15.973Z,97832.56
2023-05-08T20:38:43.786Z,97826.97
2023-05-08T20:41:11.622Z,97837.47
2023-05-08T20:43:41.028Z,97840.84
2023-05-08T20:46:09.988Z,97816.22
2023-05-08T20:48:38.545Z,97837.47
2023-05-08T20:51:06.641Z,97821.91
2023-05-08T20:53:34.559Z,97828.06
2023-05-08T20:56:02.871Z,97825.53
2023-05-08T20:58:33.986Z,97809.25
2023-05-08T21:01:03.491Z,97821.84
2023-05-08T21:03:32.452Z,97689.09
2023-05-08T21:06:00.811Z,97663.53
2023-05-08T21:08:28.932Z,97796.53
2023-05-08T21:11:00.647Z,97641.28
2023-05-08T21:13:28.900Z,97768.22
2023-05-08T21:15:56.976Z,97716.06
2023-05-08T21:18:27.510Z,97823.53
2023-05-08T21:20:56.038Z,97827.81
2023-05-08T21:23:24.733Z,97826.13
2023-05-08T21:25:53.690Z,97824.19
2023-05-08T21:28:22.410Z,97842.63
2023-05-08T21:30:51.087Z,97839.97
2023-05-08T21:33:19.350Z,97812.25
2023-05-08T21:35:50.174Z,97836.25
2023-05-08T21:38:22.134Z,97821.72
2023-05-08T21:40:51.182Z,97761.13
2023-05-08T21:43:25.353Z,97824.03
2023-05-08T21:45:59.583Z,97783.50
2023-05-08T21:48:29.335Z,97684.09
2023-05-08T21:50:59.157Z,97810.81
2023-05-08T21:53:28.265Z,97806.34
2023-05-08T21:56:01.055Z,97730.00
2023-05-08T21:58:30.140Z,97729.84
2023-05-08T22:00:59.527Z,97732.81
2023-05-08T22:03:31.556Z,97796.78
2023-05-08T22:06:01.135Z,97673.88
2023-05-08T22:08:31.514Z,97798.94
2023-05-08T22:11:00.527Z,97791.31
2023-05-08T22:13:30.626Z,97770.00
2023-05-08T22:15:59.036Z,97738.56
2023-05-08T22:18:27.303Z,97724.13
2023-05-08T22:20:56.257Z,97787.09
2023-05-08T22:23:25.919Z,97742.75
2023-05-08T22:25:54.544Z,97772.47
2023-05-08T22:28:23.986Z,97627.63
2023-05-08T22:30:52.265Z,97763.78
2023-05-08T22:33:21.117Z,97680.69
2023-05-08T22:35:53.947Z,97630.56
2023-05-08T22:38:22.443Z,97745.59
2023-05-08T22:40:55.882Z,97598.28
2023-05-08T22:43:24.366Z,97763.78
2023-05-08T22:45:55.444Z,97736.66
2023-05-08T22:48:36.279Z,97578.81
2023-05-08T22:51:04.838Z,97582.94
2023-05-08T22:53:33.335Z,97632.59
2023-05-08T22:56:03.094Z,97595.72
2023-05-08T22:58:31.658Z,97740.44
2023-05-08T23:01:00.841Z,97725.47
2023-05-08T23:03:29.170Z,97737.59
2023-05-08T23:05:57.658Z,97679.66
2023-05-08T23:08:26.820Z,97747.31
2023-05-08T23:10:55.013Z,97601.78
2023-05-08T23:13:28.401Z,97734.31
2023-05-08T23:15:57.490Z,97625.41
2023-05-08T23:18:25.762Z,97652.81
2023-05-08T23:20:54.143Z,97646.19
2023-05-08T23:23:22.396Z,97686.19
2023-05-08T23:25:50.590Z,97718.50
2023-05-08T23:28:18.736Z,97617.19
2023-05-08T23:30:48.224Z,97618.88
2023-05-08T23:33:16.339Z,97709.31
2023-05-08T23:35:44.966Z,97693.63
2023-05-08T23:38:13.155Z,97678.69
2023-05-08T23:40:41.670Z,97707.81
2023-05-08T23:43:10.129Z,97634.59
2023-05-08T23:45:38.525Z,97699.00
2023-05-08T23:48:08.665Z,97706.72
2023-05-08T23:50:37.117Z,97691.56
2023-05-08T23:53:05.449Z,97657.41
2023-05-08T23:55:36.115Z,97696.75
2023-05-08T23:58:04.396Z,97581.94
